createdAt,value
2023-12-22T00:00:35.468Z,93300.00
2023-12-22T00:01:35.557Z,93270.00
2023-12-22T00:02:35.614Z,93280.00
2023-12-22T00:03:35.748Z,93271.00
2023-12-22T00:04:35.765Z,93270.00
2023-12-22T00:05:35.866Z,93289.00
2023-12-22T00:06:35.935Z,93294.00
2023-12-22T00:07:35.978Z,93305.00
2023-12-22T00:08:36.076Z,93318.00
2023-12-22T00:09:36.153Z,93319.00
2023-12-22T00:10:36.245Z,93311.00
2023-12-22T00:11:36.259Z,93327.00
2023-12-22T00:12:36.332Z,93333.00
2023-12-22T00:13:36.766Z,93329.00
2023-12-22T00:14:36.485Z,93355.00
2023-12-22T00:15:36.535Z,93355.00
2023-12-22T00:16:36.722Z,93360.00
2023-12-22T00:17:36.666Z,93348.00
2023-12-22T00:18:36.825Z,93352.00
2023-12-22T00:19:37.074Z,93355.00
2023-12-22T00:20:36.927Z,93363.00
2023-12-22T00:21:36.953Z,93376.00
2023-12-22T00:22:37.087Z,93384.00
2023-12-22T00:23:37.220Z,93367.00
2023-12-22T00:24:37.159Z,93378.00
2023-12-22T00:25:37.294Z,93400.00
2023-12-22T00:26:37.317Z,93383.00
2023-12-22T00:27:37.320Z,93381.00
2023-12-22T00:28:37.502Z,93373.00
2023-12-22T00:29:37.495Z,93375.00
2023-12-22T00:30:37.605Z,93360.00
2023-12-22T00:31:37.690Z,93355.00
2023-12-22T00:32:37.738Z,93370.00
2023-12-22T00:33:37.910Z,93383.00
2023-12-22T00:34:37.862Z,93384.00
2023-12-22T00:35:37.894Z,93367.00
2023-12-22T00:36:37.962Z,93359.00
2023-12-22T00:37:38.045Z,93352.00
2023-12-22T00:38:38.124Z,93339.00
2023-12-22T00:39:38.128Z,93336.00
2023-12-22T00:40:38.292Z,93337.00
2023-12-22T00:41:38.286Z,93324.00
2023-12-22T00:42:38.360Z,93315.00
2023-12-22T00:43:38.439Z,93316.00
2023-12-22T00:44:38.497Z,93318.00
2023-12-22T00:45:38.590Z,93313.00
2023-12-22T00:46:38.740Z,93306.00
2023-12-22T00:47:38.720Z,93308.00
2023-12-22T00:48:38.783Z,93319.00
2023-12-22T00:49:38.853Z,93303.00
2023-12-22T00:50:38.924Z,93325.00
2023-12-22T00:51:38.984Z,93328.00
2023-12-22T00:52:39.065Z,93326.00
2023-12-22T00:53:39.254Z,93323.00
2023-12-22T00:54:39.189Z,93348.00
2023-12-22T00:55:39.273Z,93339.00
2023-12-22T00:56:39.324Z,93319.00
2023-12-22T00:57:39.381Z,93319.00
2023-12-22T00:58:39.776Z,93319.00
2023-12-22T00:59:39.535Z,93342.00
2023-12-22T01:00:39.643Z,93339.00
2023-12-22T01:01:39.767Z,93333.00
2023-12-22T01:02:39.692Z,93309.00
2023-12-22T01:03:39.813Z,93306.00
2023-12-22T01:04:39.882Z,93309.00
2023-12-22T01:05:40.009Z,93311.00
2023-12-22T01:06:40.031Z,93323.00
2023-12-22T01:07:40.790Z,93335.00
2023-12-22T01:08:40.233Z,93320.00
2023-12-22T01:09:40.125Z,93332.00
2023-12-22T01:10:40.227Z,93344.00
2023-12-22T01:11:40.222Z,93339.00
2023-12-22T01:12:40.324Z,93335.00
2023-12-22T01:13:40.414Z,93339.00
2023-12-22T01:14:40.432Z,93343.00
2023-12-22T01:15:40.524Z,93344.00
2023-12-22T01:16:40.644Z,93313.00
2023-12-22T01:17:40.714Z,93318.00
2023-12-22T01:18:41.297Z,93330.00
2023-12-22T01:19:40.859Z,93353.00
2023-12-22T01:20:40.882Z,93352.00
2023-12-22T01:21:40.937Z,93343.00
2023-12-22T01:22:41.102Z,93349.00
2023-12-22T01:23:41.111Z,93354.00
2023-12-22T01:24:41.187Z,93354.00
2023-12-22T01:25:41.330Z,93340.00
2023-12-22T01:26:41.285Z,93350.00
2023-12-22T01:27:41.367Z,93354.00
2023-12-22T01:28:41.531Z,93346.00
2023-12-22T01:29:41.717Z,93355.00
2023-12-22T01:30:41.578Z,93374.00
2023-12-22T01:31:41.708Z,93358.00
2023-12-22T01:32:41.698Z,93340.00
2023-12-22T01:33:41.751Z,93338.00
2023-12-22T01:34:41.846Z,93352.00
2023-12-22T01:35:41.867Z,93345.00
2023-12-22T01:36:41.910Z,93349.00
2023-12-22T01:37:42.002Z,93346.00
2023-12-22T01:38:42.040Z,93347.00
2023-12-22T01:39:42.076Z,93349.00
2023-12-22T01:40:42.137Z,93341.00
2023-12-22T01:41:42.175Z,93346.00
2023-12-22T01:42:42.267Z,93353.00
2023-12-22T01:43:42.300Z,93347.00
2023-12-22T01:44:42.321Z,93347.00
2023-12-22T01:45:42.368Z,93349.00
2023-12-22T01:46:42.421Z,93332.00
2023-12-22T01:47:42.459Z,93337.00
2023-12-22T01:48:42.578Z,93355.00
2023-12-22T01:49:42.790Z,93383.00
2023-12-22T01:50:42.573Z,93385.00
2023-12-22T01:51:42.594Z,93369.00
2023-12-22T01:52:42.689Z,93360.00
2023-12-22T01:53:42.678Z,93365.00
2023-12-22T01:54:42.654Z,93370.00
2023-12-22T01:55:42.728Z,93360.00
2023-12-22T01:56:42.736Z,93369.00
2023-12-22T01:57:42.797Z,93364.00
2023-12-22T01:58:42.802Z,93379.00
2023-12-22T01:59:42.832Z,93374.00
2023-12-22T02:00:42.873Z,93358.00
2023-12-22T02:01:43.043Z,93359.00
2023-12-22T02:02:42.959Z,93364.00
2023-12-22T02:03:43.073Z,93375.00
2023-12-22T02:04:43.147Z,93356.00
2023-12-22T02:05:43.195Z,93353.00
2023-12-22T02:06:43.145Z,93343.00
2023-12-22T02:07:43.307Z,93354.00
2023-12-22T02:08:43.229Z,93359.00
2023-12-22T02:09:43.324Z,93360.00
2023-12-22T02:10:43.419Z,93361.00
2023-12-22T02:11:43.380Z,93344.00
2023-12-22T02:12:43.439Z,93332.00
2023-12-22T02:13:43.461Z,93325.00
2023-12-22T02:14:43.745Z,93325.00
2023-12-22T02:15:43.550Z,93333.00
2023-12-22T02:16:43.603Z,93328.00
2023-12-22T02:17:43.661Z,93330.00
2023-12-22T02:18:43.736Z,93334.00
2023-12-22T02:19:43.792Z,93334.00
2023-12-22T02:20:43.729Z,93335.00
2023-12-22T02:21:43.769Z,93342.00
2023-12-22T02:22:43.843Z,93352.00
2023-12-22T02:23:43.859Z,93368.00
2023-12-22T02:24:43.919Z,93362.00
2023-12-22T02:25:43.988Z,93375.00
2023-12-22T02:26:44.003Z,93381.00
2023-12-22T02:27:44.762Z,93371.00
2023-12-22T02:28:44.174Z,93372.00
2023-12-22T02:29:44.260Z,93379.00
2023-12-22T02:30:44.206Z,93391.00
2023-12-22T02:31:44.412Z,93390.00
2023-12-22T02:32:44.438Z,93385.00
2023-12-22T02:33:44.373Z,93413.00
2023-12-22T02:34:44.540Z,93405.00
2023-12-22T02:35:44.457Z,93418.00
2023-12-22T02:36:44.567Z,93429.00
2023-12-22T02:37:44.592Z,93436.00
2023-12-22T02:38:44.659Z,93408.00
2023-12-22T02:39:44.806Z,93411.00
2023-12-22T02:40:44.773Z,93425.00
2023-12-22T02:41:44.752Z,93414.00
2023-12-22T02:42:44.773Z,93410.00
2023-12-22T02:43:44.886Z,93393.00
2023-12-22T02:44:44.875Z,93404.00
2023-12-22T02:45:44.888Z,93426.00
2023-12-22T02:46:44.969Z,93405.00
2023-12-22T02:47:45.027Z,93405.00
2023-12-22T02:48:45.024Z,93438.00
2023-12-22T02:49:45.282Z,93422.00
2023-12-22T02:50:45.064Z,93417.00
2023-12-22T02:51:45.080Z,93405.00
2023-12-22T02:52:45.166Z,93397.00
2023-12-22T02:53:45.151Z,93408.00
2023-12-22T02:54:45.210Z,93412.00
2023-12-22T02:55:45.377Z,93403.00
2023-12-22T02:56:45.248Z,93410.00
2023-12-22T02:57:45.251Z,93402.00
2023-12-22T02:58:45.320Z,93402.00
2023-12-22T02:59:45.328Z,93409.00
2023-12-22T03:00:45.346Z,93409.00
2023-12-22T03:01:45.387Z,93392.00
2023-12-22T03:02:45.345Z,93377.00
2023-12-22T03:03:45.469Z,93391.00
2023-12-22T03:04:45.446Z,93416.00
2023-12-22T03:05:45.459Z,93395.00
2023-12-22T03:06:45.486Z,93393.00
2023-12-22T03:07:45.543Z,93395.00
2023-12-22T03:08:45.563Z,93406.00
2023-12-22T03:09:45.739Z,93415.00
2023-12-22T03:10:45.635Z,93407.00
2023-12-22T03:11:45.624Z,93414.00
2023-12-22T03:12:45.633Z,93423.00
2023-12-22T03:13:45.737Z,93414.00
2023-12-22T03:14:45.716Z,93395.00
2023-12-22T03:15:45.745Z,93397.00
2023-12-22T03:16:45.783Z,93402.00
2023-12-22T03:17:45.864Z,93389.00
2023-12-22T03:18:45.885Z,93397.00
2023-12-22T03:19:45.908Z,93402.00
2023-12-22T03:20:45.864Z,93397.00
2023-12-22T03:21:45.907Z,93394.00
2023-12-22T03:22:45.950Z,93391.00
2023-12-22T03:23:45.978Z,93395.00
2023-12-22T03:24:46.040Z,93402.00
2023-12-22T03:25:46.040Z,93398.00
2023-12-22T03:26:46.030Z,93393.00
2023-12-22T03:27:46.219Z,93389.00
2023-12-22T03:28:46.080Z,93394.00
2023-12-22T03:29:46.099Z,93412.00
2023-12-22T03:30:46.107Z,93426.00
2023-12-22T03:31:46.084Z,93425.00
2023-12-22T03:32:46.112Z,93402.00
2023-12-22T03:33:46.117Z,93429.00
2023-12-22T03:34:46.348Z,93417.00
2023-12-22T03:35:46.137Z,93411.00
2023-12-22T03:36:46.154Z,93424.00
2023-12-22T03:37:46.376Z,93431.00
2023-12-22T03:38:46.767Z,93427.00
2023-12-22T03:39:46.236Z,93425.00
2023-12-22T03:40:46.216Z,93412.00
2023-12-22T03:41:46.252Z,93428.00
2023-12-22T03:42:46.267Z,93421.00
2023-12-22T03:43:46.327Z,93424.00
2023-12-22T03:44:46.279Z,93421.00
2023-12-22T03:45:46.273Z,93443.00
2023-12-22T03:46:46.352Z,93435.00
2023-12-22T03:47:46.574Z,93429.00
2023-12-22T03:48:46.372Z,93410.00
2023-12-22T03:49:46.396Z,93428.00
2023-12-22T03:50:46.393Z,93428.00
2023-12-22T03:51:46.381Z,93424.00
2023-12-22T03:52:46.476Z,93433.00
2023-12-22T03:54:05.105Z,93432.00
2023-12-22T03:55:05.089Z,93422.00
2023-12-22T03:56:05.137Z,93424.00
2023-12-22T03:57:05.071Z,93421.00
2023-12-22T03:58:05.097Z,93414.00
2023-12-22T03:59:05.110Z,93414.00
2023-12-22T04:00:05.108Z,93395.00
2023-12-22T04:01:05.112Z,93388.00
2023-12-22T04:02:05.162Z,93391.00
2023-12-22T04:03:05.180Z,93398.00
2023-12-22T04:04:05.133Z,93413.00
2023-12-22T04:05:05.183Z,93430.00
2023-12-22T04:06:05.121Z,93425.00
2023-12-22T04:07:05.093Z,93414.00
2023-12-22T04:08:05.175Z,93414.00
2023-12-22T04:09:05.136Z,93415.00
2023-12-22T04:10:05.157Z,93420.00
2023-12-22T04:11:05.103Z,93420.00
2023-12-22T04:12:05.116Z,93414.00
2023-12-22T04:13:05.133Z,93406.00
2023-12-22T04:14:05.105Z,93397.00
2023-12-22T04:15:05.111Z,93416.00
2023-12-22T04:16:05.164Z,93413.00
2023-12-22T04:17:05.139Z,93408.00
2023-12-22T04:18:05.220Z,93368.00
2023-12-22T04:19:06.142Z,93408.00
2023-12-22T04:20:05.149Z,93405.00
2023-12-22T04:21:05.133Z,93436.00
2023-12-22T04:22:05.119Z,93414.00
2023-12-22T04:23:05.155Z,93414.00
2023-12-22T04:24:05.159Z,93427.00
2023-12-22T04:25:05.151Z,93421.00
2023-12-22T04:26:05.157Z,93438.00
2023-12-22T04:27:05.164Z,93461.00
2023-12-22T04:28:05.165Z,93465.00
2023-12-22T04:29:05.177Z,93469.00
2023-12-22T04:30:05.215Z,93465.00
2023-12-22T04:31:12.419Z,93475.00
2023-12-22T04:32:12.400Z,93486.00
2023-12-22T04:33:12.487Z,93487.00
2023-12-22T04:34:12.459Z,93481.00
2023-12-22T04:35:12.438Z,93467.00
2023-12-22T04:36:12.444Z,93472.00
2023-12-22T04:37:12.462Z,93475.00
2023-12-22T04:38:12.448Z,93466.00
2023-12-22T04:39:12.468Z,93479.00
2023-12-22T04:40:12.444Z,93500.00
2023-12-22T04:41:12.417Z,93494.00
2023-12-22T04:42:12.456Z,93499.00
2023-12-22T04:43:12.446Z,93511.00
2023-12-22T04:44:12.445Z,93517.00
2023-12-22T04:45:12.421Z,93511.00
2023-12-22T04:46:12.432Z,93504.00
2023-12-22T04:47:12.447Z,93521.00
2023-12-22T04:48:12.511Z,93528.00
2023-12-22T04:49:12.556Z,93530.00
2023-12-22T04:50:12.525Z,93543.00
2023-12-22T04:51:12.429Z,93538.00
2023-12-22T04:52:12.463Z,93520.00
2023-12-22T04:53:12.523Z,93495.00
2023-12-22T04:54:12.454Z,93500.00
2023-12-22T04:55:12.602Z,93500.00
2023-12-22T04:56:12.491Z,93496.00
2023-12-22T04:57:13.605Z,93489.00
2023-12-22T04:58:12.486Z,93494.00
2023-12-22T04:59:12.465Z,93496.00
2023-12-22T05:00:12.530Z,93502.00
2023-12-22T05:01:12.525Z,93503.00
2023-12-22T05:02:12.520Z,93505.00
2023-12-22T05:03:12.586Z,93515.00
2023-12-22T05:04:12.633Z,93523.00
2023-12-22T05:05:12.630Z,93527.00
2023-12-22T05:06:12.934Z,93525.00
2023-12-22T05:07:12.896Z,93518.00
2023-12-22T05:08:12.908Z,93519.00
2023-12-22T05:09:12.868Z,93516.00
2023-12-22T05:10:12.840Z,93516.00
2023-12-22T05:11:12.901Z,93518.00
2023-12-22T05:12:12.926Z,93523.00
2023-12-22T05:13:12.996Z,93535.00
2023-12-22T05:14:13.086Z,93550.00
2023-12-22T05:15:13.102Z,93543.00
2023-12-22T05:16:13.087Z,93544.00
2023-12-22T05:17:13.125Z,93539.00
2023-12-22T05:18:13.260Z,93536.00
2023-12-22T05:19:13.244Z,93532.00
2023-12-22T05:20:13.632Z,93534.00
2023-12-22T05:21:13.391Z,93528.00
2023-12-22T05:22:13.413Z,93531.00
2023-12-22T05:23:13.505Z,93536.00
2023-12-22T05:24:13.483Z,93542.00
2023-12-22T05:25:13.503Z,93555.00
2023-12-22T05:26:13.590Z,93561.00
2023-12-22T05:27:13.531Z,93567.00
2023-12-22T05:28:13.585Z,93570.00
2023-12-22T05:29:13.634Z,93559.00
2023-12-22T05:30:13.628Z,93572.00
2023-12-22T05:31:13.635Z,93566.00
2023-12-22T05:32:13.648Z,93573.00
2023-12-22T05:33:13.691Z,93579.00
2023-12-22T05:34:14.602Z,93576.00
2023-12-22T05:35:13.939Z,93598.00
2023-12-22T05:36:13.761Z,93612.00
2023-12-22T05:37:13.773Z,93610.00
2023-12-22T05:38:13.791Z,93569.00
2023-12-22T05:39:13.854Z,93565.00
2023-12-22T05:40:13.883Z,93595.00
2023-12-22T05:41:13.845Z,93596.00
2023-12-22T05:42:13.892Z,93570.00
2023-12-22T05:43:13.907Z,93570.00
2023-12-22T05:44:13.934Z,93577.00
2023-12-22T05:45:13.938Z,93586.00
2023-12-22T05:46:13.959Z,93591.00
2023-12-22T05:47:14.025Z,93595.00
2023-12-22T05:48:14.127Z,93593.00
2023-12-22T05:49:14.190Z,93608.00
2023-12-22T05:50:14.360Z,93612.00
2023-12-22T05:51:14.067Z,93601.00
2023-12-22T05:52:14.099Z,93594.00
2023-12-22T05:53:14.086Z,93571.00
2023-12-22T05:54:14.168Z,93554.00
2023-12-22T05:55:14.155Z,93560.00
2023-12-22T05:56:14.168Z,93571.00
2023-12-22T05:57:14.193Z,93582.00
2023-12-22T05:58:14.235Z,93592.00
2023-12-22T05:59:14.261Z,93593.00
2023-12-22T06:00:14.277Z,93591.00
2023-12-22T06:01:14.310Z,93582.00
2023-12-22T06:02:14.338Z,93586.00
2023-12-22T06:03:14.388Z,93586.00
2023-12-22T06:04:14.378Z,93597.00
2023-12-22T06:05:14.502Z,93608.00
2023-12-22T06:06:14.459Z,93615.00
2023-12-22T06:07:14.479Z,93609.00
2023-12-22T06:08:14.457Z,93601.00
2023-12-22T06:09:14.479Z,93593.00
2023-12-22T06:10:14.524Z,93594.00
2023-12-22T06:11:14.545Z,93601.00
2023-12-22T06:12:14.619Z,93594.00
2023-12-22T06:13:14.584Z,93597.00
2023-12-22T06:14:14.620Z,93608.00
2023-12-22T06:15:14.655Z,93626.00
2023-12-22T06:16:14.651Z,93626.00
2023-12-22T06:17:14.691Z,93611.00
2023-12-22T06:18:14.792Z,93604.00
2023-12-22T06:19:14.792Z,93604.00
2023-12-22T06:20:15.082Z,93606.00
2023-12-22T06:21:14.730Z,93611.00
2023-12-22T06:22:14.794Z,93601.00
2023-12-22T06:23:14.790Z,93619.00
2023-12-22T06:24:14.802Z,93618.00
2023-12-22T06:25:14.780Z,93623.00
2023-12-22T06:26:14.824Z,93623.00
2023-12-22T06:27:14.791Z,93621.00
2023-12-22T06:28:14.820Z,93611.00
2023-12-22T06:29:14.797Z,93598.00
2023-12-22T06:30:14.844Z,93596.00
2023-12-22T06:31:14.867Z,93602.00
2023-12-22T06:32:14.863Z,93593.00
2023-12-22T06:33:14.945Z,93613.00
2023-12-22T06:34:14.869Z,93623.00
2023-12-22T06:35:17.820Z,93614.00
2023-12-22T06:36:14.896Z,93602.00
2023-12-22T06:37:14.893Z,93624.00
2023-12-22T06:38:14.876Z,93628.00
2023-12-22T06:39:14.887Z,93621.00
2023-12-22T06:40:14.912Z,93619.00
2023-12-22T06:41:14.870Z,93601.00
2023-12-22T06:42:14.904Z,93625.00
2023-12-22T06:43:14.918Z,93629.00
2023-12-22T06:44:14.889Z,93660.00
2023-12-22T06:45:15.135Z,93642.00
2023-12-22T06:46:14.878Z,93622.00
2023-12-22T06:47:15.053Z,93633.00
2023-12-22T06:48:15.089Z,93632.00
2023-12-22T06:49:14.926Z,93625.00
2023-12-22T06:50:15.069Z,93626.00
2023-12-22T06:51:14.915Z,93633.00
2023-12-22T06:52:14.933Z,93637.00
2023-12-22T06:53:24.976Z,93627.00
2023-12-22T06:54:17.579Z,93632.00
2023-12-22T06:55:14.953Z,93639.00
2023-12-22T06:56:14.929Z,93663.00
2023-12-22T06:57:15.963Z,93650.00
2023-12-22T06:58:14.943Z,93648.00
2023-12-22T06:59:16.416Z,93654.00
2023-12-22T07:00:14.966Z,93662.00
2023-12-22T07:01:14.948Z,93667.00
2023-12-22T07:02:20.036Z,93658.00
2023-12-22T07:03:16.116Z,93665.00
2023-12-22T07:04:14.982Z,93661.00
2023-12-22T07:05:15.103Z,93657.00
2023-12-22T07:06:14.949Z,93661.00
2023-12-22T07:07:14.954Z,93659.00
2023-12-22T07:08:14.996Z,93672.00
2023-12-22T07:09:14.983Z,93667.00
2023-12-22T07:10:14.972Z,93677.00
2023-12-22T07:11:15.885Z,93678.00
2023-12-22T07:12:15.048Z,93667.00
2023-12-22T07:13:14.974Z,93677.00
2023-12-22T07:14:15.051Z,93694.00
2023-12-22T07:15:15.130Z,93694.00
2023-12-22T07:16:14.986Z,93704.00
2023-12-22T07:17:14.994Z,93706.00
2023-12-22T07:18:15.090Z,93694.00
2023-12-22T07:19:15.035Z,93694.00
2023-12-22T07:20:15.122Z,93709.00
2023-12-22T07:21:15.128Z,93708.00
2023-12-22T07:22:15.153Z,93708.00
2023-12-22T07:23:15.290Z,93726.00
2023-12-22T07:24:16.447Z,93727.00
2023-12-22T07:25:15.485Z,93712.00
2023-12-22T07:26:15.322Z,93700.00
2023-12-22T07:27:15.274Z,93699.00
2023-12-22T07:28:15.304Z,93724.00
2023-12-22T07:29:15.396Z,93719.00
2023-12-22T07:30:15.347Z,93722.00
2023-12-22T07:31:15.584Z,93701.00
2023-12-22T07:32:16.058Z,93703.00
2023-12-22T07:33:15.487Z,93715.00
2023-12-22T07:34:15.431Z,93706.00
2023-12-22T07:35:16.265Z,93715.00
2023-12-22T07:36:15.440Z,93707.00
2023-12-22T07:37:15.501Z,93711.00
2023-12-22T07:38:15.592Z,93735.00
2023-12-22T07:39:16.723Z,93735.00
2023-12-22T07:40:17.254Z,93740.00
2023-12-22T07:41:16.599Z,93724.00
2023-12-22T07:42:15.911Z,93750.00
2023-12-22T07:43:15.672Z,93734.00
2023-12-22T07:44:16.657Z,93752.00
2023-12-22T07:45:15.764Z,93744.00
2023-12-22T07:46:15.791Z,93731.00
2023-12-22T07:47:16.306Z,93746.00
2023-12-22T07:48:15.919Z,93750.00
2023-12-22T07:49:16.978Z,93754.00
2023-12-22T07:50:16.762Z,93750.00
2023-12-22T07:51:15.987Z,93760.00
2023-12-22T07:52:16.201Z,93747.00
2023-12-22T07:53:16.144Z,93748.00
2023-12-22T07:54:16.188Z,93744.00
2023-12-22T07:55:16.158Z,93754.00
2023-12-22T07:56:16.372Z,93759.00
2023-12-22T07:57:16.230Z,93769.00
2023-12-22T07:58:16.301Z,93770.00
2023-12-22T07:59:26.472Z,93768.00
2023-12-22T08:00:17.380Z,93769.00
2023-12-22T08:01:16.383Z,93745.00
2023-12-22T08:02:16.382Z,93750.00
2023-12-22T08:03:16.375Z,93768.00
2023-12-22T08:04:16.335Z,93757.00
2023-12-22T08:05:16.335Z,93763.00
2023-12-22T08:06:16.462Z,93776.00
2023-12-22T08:07:16.446Z,93779.00
2023-12-22T08:08:16.320Z,93781.00
2023-12-22T08:09:16.319Z,93770.00
2023-12-22T08:10:16.370Z,93774.00
2023-12-22T08:11:16.382Z,93794.00
2023-12-22T08:12:16.341Z,93782.00
2023-12-22T08:13:16.422Z,93762.00
2023-12-22T08:14:16.370Z,93754.00
2023-12-22T08:15:25.203Z,93768.00
2023-12-22T08:16:17.410Z,93775.00
2023-12-22T08:17:16.441Z,93786.00
2023-12-22T08:18:16.562Z,93792.00
2023-12-22T08:19:16.698Z,93809.00
2023-12-22T08:20:21.286Z,93794.00
2023-12-22T08:21:25.114Z,93795.00
2023-12-22T08:22:18.027Z,93781.00
2023-12-22T08:23:17.079Z,93787.00
2023-12-22T08:24:21.312Z,93779.00
2023-12-22T08:25:17.557Z,93755.00
2023-12-22T08:26:16.538Z,93752.00
2023-12-22T08:27:16.439Z,93752.00
2023-12-22T08:28:16.478Z,93752.00
2023-12-22T08:29:16.458Z,93761.00
2023-12-22T08:30:16.643Z,93772.00
2023-12-22T08:31:16.435Z,93779.00
2023-12-22T08:32:16.489Z,93785.00
2023-12-22T08:33:16.542Z,93781.00
2023-12-22T08:34:16.498Z,93788.00
2023-12-22T08:35:16.551Z,93768.00
2023-12-22T08:36:16.839Z,93779.00
2023-12-22T08:37:16.515Z,93787.00
2023-12-22T08:38:16.571Z,93794.00
2023-12-22T08:39:16.674Z,93796.00
2023-12-22T08:40:16.569Z,93820.00
2023-12-22T08:41:16.522Z,93815.00
2023-12-22T08:42:16.491Z,93803.00
2023-12-22T08:43:16.479Z,93785.00
2023-12-22T08:44:16.573Z,93781.00
2023-12-22T08:45:16.610Z,93783.00
2023-12-22T08:46:16.503Z,93792.00
2023-12-22T08:47:16.484Z,93794.00
2023-12-22T08:48:16.539Z,93787.00
2023-12-22T08:49:16.647Z,93802.00
2023-12-22T08:50:16.649Z,93788.00
2023-12-22T08:51:16.494Z,93785.00
2023-12-22T08:52:16.514Z,93781.00
2023-12-22T08:53:16.572Z,93787.00
2023-12-22T08:54:16.584Z,93783.00
2023-12-22T08:55:16.704Z,93785.00
2023-12-22T08:56:16.702Z,93794.00
2023-12-22T08:57:16.753Z,93805.00
2023-12-22T08:58:16.821Z,93817.00
2023-12-22T08:59:16.880Z,93815.00
2023-12-22T09:00:16.991Z,93834.00
2023-12-22T09:01:17.155Z,93818.00
2023-12-22T09:02:17.122Z,93842.00
2023-12-22T09:03:17.176Z,93839.00
2023-12-22T09:04:17.192Z,93815.00
2023-12-22T09:05:17.741Z,93818.00
2023-12-22T09:06:17.290Z,93809.00
2023-12-22T09:07:17.400Z,93829.00
2023-12-22T09:08:17.476Z,93836.00
2023-12-22T09:09:17.458Z,93834.00
2023-12-22T09:10:17.665Z,93827.00
2023-12-22T09:11:17.601Z,93832.00
2023-12-22T09:12:17.632Z,93833.00
2023-12-22T09:13:17.704Z,93826.00
2023-12-22T09:14:17.747Z,93819.00
2023-12-22T09:15:17.794Z,93815.00
2023-12-22T09:16:17.863Z,93821.00
2023-12-22T09:17:17.914Z,93814.00
2023-12-22T09:18:18.036Z,93815.00
2023-12-22T09:19:18.013Z,93827.00
2023-12-22T09:20:18.247Z,93814.00
2023-12-22T09:21:18.038Z,93819.00
2023-12-22T09:22:18.087Z,93833.00
2023-12-22T09:23:18.101Z,93844.00
2023-12-22T09:24:18.115Z,93848.00
2023-12-22T09:25:18.217Z,93855.00
2023-12-22T09:26:18.249Z,93847.00
2023-12-22T09:27:18.311Z,93841.00
2023-12-22T09:28:18.348Z,93842.00
2023-12-22T09:29:18.337Z,93852.00
2023-12-22T09:30:18.390Z,93847.00
2023-12-22T09:31:18.387Z,93871.00
2023-12-22T09:32:18.452Z,93872.00
2023-12-22T09:33:18.594Z,93865.00
2023-12-22T09:34:18.636Z,93874.00
2023-12-22T09:35:18.652Z,93879.00
2023-12-22T09:36:18.445Z,93881.00
2023-12-22T09:37:18.524Z,93873.00
2023-12-22T09:38:18.619Z,93863.00
2023-12-22T09:39:18.608Z,93862.00
2023-12-22T09:40:18.652Z,93855.00
2023-12-22T09:41:18.610Z,93873.00
2023-12-22T09:42:18.726Z,93877.00
2023-12-22T09:43:18.795Z,93875.00
2023-12-22T09:44:18.825Z,93880.00
2023-12-22T09:45:19.194Z,93882.00
2023-12-22T09:46:18.896Z,93884.00
2023-12-22T09:47:18.980Z,93881.00
2023-12-22T09:48:19.117Z,93876.00
2023-12-22T09:49:19.207Z,93877.00
2023-12-22T09:50:19.286Z,93866.00
2023-12-22T09:51:19.284Z,93869.00
2023-12-22T09:52:19.283Z,93861.00
2023-12-22T09:53:19.289Z,93869.00
2023-12-22T09:54:19.398Z,93867.00
2023-12-22T09:55:19.796Z,93870.00
2023-12-22T09:56:19.488Z,93878.00
2023-12-22T09:57:26.060Z,93882.00
2023-12-22T09:58:20.589Z,93878.00
2023-12-22T09:59:19.673Z,93875.00
2023-12-22T10:00:19.686Z,93869.00
2023-12-22T10:01:19.590Z,93867.00
2023-12-22T10:02:19.590Z,93861.00
2023-12-22T10:03:19.505Z,93859.00
2023-12-22T10:04:19.597Z,93842.00
2023-12-22T10:05:19.812Z,93842.00
2023-12-22T10:06:19.608Z,93845.00
2023-12-22T10:07:19.544Z,93855.00
2023-12-22T10:08:19.612Z,93858.00
2023-12-22T10:09:19.530Z,93859.00
2023-12-22T10:10:19.709Z,93863.00
2023-12-22T10:11:19.543Z,93860.00
2023-12-22T10:12:19.556Z,93861.00
2023-12-22T10:13:19.601Z,93867.00
2023-12-22T10:14:19.652Z,93860.00
2023-12-22T10:15:20.162Z,93869.00
2023-12-22T10:16:19.723Z,93879.00
2023-12-22T10:17:19.801Z,93885.00
2023-12-22T10:18:19.861Z,93894.00
2023-12-22T10:19:19.851Z,93882.00
2023-12-22T10:20:19.944Z,93884.00
2023-12-22T10:21:19.885Z,93892.00
2023-12-22T10:22:19.901Z,93887.00
2023-12-22T10:23:19.998Z,93872.00
2023-12-22T10:24:20.001Z,93876.00
2023-12-22T10:25:20.091Z,93869.00
2023-12-22T10:26:20.105Z,93877.00
2023-12-22T10:27:20.069Z,93874.00
2023-12-22T10:28:20.075Z,93868.00
2023-12-22T10:29:20.048Z,93858.00
2023-12-22T10:30:20.125Z,93869.00
2023-12-22T10:31:20.198Z,93881.00
2023-12-22T10:32:20.245Z,93882.00
2023-12-22T10:33:20.447Z,93885.00
2023-12-22T10:34:20.379Z,93884.00
2023-12-22T10:35:20.432Z,93878.00
2023-12-22T10:36:20.484Z,93867.00
2023-12-22T10:37:20.538Z,93869.00
2023-12-22T10:38:20.621Z,93862.00
2023-12-22T10:39:20.659Z,93854.00
2023-12-22T10:40:20.666Z,93848.00
2023-12-22T10:41:20.716Z,93863.00
2023-12-22T10:42:20.718Z,93838.00
2023-12-22T10:43:20.857Z,93845.00
2023-12-22T10:44:20.815Z,93860.00
2023-12-22T10:45:20.891Z,93872.00
2023-12-22T10:46:20.900Z,93851.00
2023-12-22T10:47:20.968Z,93862.00
2023-12-22T10:48:21.083Z,93862.00
2023-12-22T10:49:20.992Z,93865.00
2023-12-22T10:50:21.173Z,93866.00
2023-12-22T10:51:21.127Z,93866.00
2023-12-22T10:52:21.209Z,93861.00
2023-12-22T10:53:21.241Z,93874.00
2023-12-22T10:54:21.266Z,93852.00
2023-12-22T10:55:21.675Z,93871.00
2023-12-22T10:56:21.335Z,93861.00
2023-12-22T10:57:21.346Z,93864.00
2023-12-22T10:58:21.381Z,93860.00
2023-12-22T10:59:21.397Z,93868.00
2023-12-22T11:00:21.519Z,93867.00
2023-12-22T11:01:21.488Z,93873.00
2023-12-22T11:02:21.531Z,93869.00
2023-12-22T11:03:21.501Z,93871.00
2023-12-22T11:04:21.616Z,93866.00
2023-12-22T11:05:21.543Z,93861.00
2023-12-22T11:06:21.618Z,93863.00
2023-12-22T11:07:21.659Z,93861.00
2023-12-22T11:08:21.929Z,93868.00
2023-12-22T11:09:21.785Z,93859.00
2023-12-22T11:10:21.839Z,93869.00
2023-12-22T11:11:21.883Z,93879.00
2023-12-22T11:12:21.864Z,93888.00
2023-12-22T11:13:21.882Z,93888.00
2023-12-22T11:14:21.921Z,93885.00
2023-12-22T11:15:21.878Z,93877.00
2023-12-22T11:16:22.060Z,93894.00
2023-12-22T11:17:21.896Z,93878.00
2023-12-22T11:18:22.057Z,93882.00
2023-12-22T11:19:22.046Z,93883.00
2023-12-22T11:20:22.154Z,93885.00
2023-12-22T11:21:22.029Z,93890.00
2023-12-22T11:22:22.085Z,93880.00
2023-12-22T11:23:22.142Z,93875.00
2023-12-22T11:24:22.201Z,93879.00
2023-12-22T11:25:22.295Z,93881.00
2023-12-22T11:26:22.244Z,93891.00
2023-12-22T11:27:22.286Z,93888.00
2023-12-22T11:28:22.331Z,93887.00
2023-12-22T11:29:22.333Z,93885.00
2023-12-22T11:30:22.348Z,93886.00
2023-12-22T11:31:22.511Z,93892.00
2023-12-22T11:32:22.473Z,93887.00
2023-12-22T11:33:22.596Z,93887.00
2023-12-22T11:34:22.644Z,93893.00
2023-12-22T11:35:22.582Z,93895.00
2023-12-22T11:36:23.539Z,93878.00
2023-12-22T11:37:22.559Z,93879.00
2023-12-22T11:38:22.598Z,93897.00
2023-12-22T11:39:22.534Z,93884.00
2023-12-22T11:40:22.840Z,93875.00
2023-12-22T11:41:27.454Z,93886.00
2023-12-22T11:42:27.486Z,93887.00
2023-12-22T11:43:27.461Z,93888.00
2023-12-22T11:44:27.481Z,93893.00
2023-12-22T11:45:27.428Z,93876.00